createdAt,value
2017-03-22T00:01:39.556Z,0
2017-03-22T00:02:20.024Z,0
2017-03-22T00:03:00.514Z,0
2017-03-22T00:03:40.991Z,0
2017-03-22T00:04:21.477Z,0
2017-03-22T00:05:01.909Z,0
2017-03-22T00:05:42.380Z,0
2017-03-22T00:08:00.162Z,0
2017-03-22T00:08:40.644Z,0
2017-03-22T00:09:21.098Z,0
2017-03-22T00:10:01.589Z,0
2017-03-22T00:10:42.069Z,0
2017-03-22T00:11:22.554Z,0
2017-03-22T00:12:03.053Z,0
2017-03-22T00:12:43.523Z,0
2017-03-22T00:13:24.012Z,0
2017-03-22T00:14:04.513Z,0
2017-03-22T00:14:45.002Z,0
2017-03-22T00:15:25.578Z,0
2017-03-22T00:16:06.076Z,0
2017-03-22T00:16:46.568Z,0
2017-03-22T00:17:27.041Z,0
2017-03-22T00:18:07.527Z,0
2017-03-22T00:18:48.022Z,0
2017-03-22T00:19:28.506Z,0
2017-03-22T00:20:08.987Z,0
2017-03-22T00:20:49.489Z,0
2017-03-22T00:21:29.972Z,0
2017-03-22T00:22:10.452Z,0
2017-03-22T00:22:50.925Z,0
2017-03-22T00:23:31.374Z,0
2017-03-22T00:24:11.823Z,0
2017-03-22T00:24:52.284Z,0
2017-03-22T00:25:32.738Z,0
2017-03-22T00:26:13.203Z,0
2017-03-22T00:26:53.619Z,0
2017-03-22T00:27:34.078Z,0
2017-03-22T00:29:46.755Z,0
2017-03-22T00:30:27.241Z,0
2017-03-22T00:31:07.728Z,0
2017-03-22T00:31:48.768Z,0
2017-03-22T00:32:29.261Z,0
2017-03-22T00:33:09.723Z,0
2017-03-22T00:33:50.234Z,0
2017-03-22T00:34:30.698Z,0
2017-03-22T00:35:11.186Z,0
2017-03-22T00:35:51.671Z,0
2017-03-22T00:36:32.151Z,0
2017-03-22T00:37:12.622Z,0
2017-03-22T00:37:53.109Z,0
2017-03-22T00:38:33.607Z,0
2017-03-22T00:39:14.074Z,0
2017-03-22T00:39:54.554Z,0
2017-03-22T00:40:35.032Z,0
2017-03-22T00:41:15.474Z,0
2017-03-22T00:41:55.891Z,0
2017-03-22T00:42:36.374Z,0
2017-03-22T00:43:16.849Z,0
2017-03-22T00:43:57.332Z,0
2017-03-22T00:44:37.822Z,0
2017-03-22T00:45:18.308Z,0
2017-03-22T00:45:58.783Z,0
2017-03-22T00:46:39.269Z,0
2017-03-22T00:47:19.750Z,0
2017-03-22T00:48:00.221Z,0
2017-03-22T00:48:41.357Z,0
2017-03-22T00:49:21.831Z,0
2017-03-22T00:50:02.303Z,0
2017-03-22T00:50:42.727Z,0
2017-03-22T00:51:23.164Z,0
2017-03-22T00:52:03.595Z,0
2017-03-22T00:52:44.044Z,0
2017-03-22T00:53:24.484Z,0
2017-03-22T00:54:04.947Z,0
2017-03-22T00:54:45.405Z,0
2017-03-22T00:55:25.868Z,0
2017-03-22T00:56:06.336Z,0
2017-03-22T00:56:46.795Z,0
2017-03-22T00:57:27.269Z,0
2017-03-22T00:58:07.745Z,0
2017-03-22T00:58:48.210Z,0
2017-03-22T00:59:28.674Z,0
2017-03-22T01:00:09.091Z,0
2017-03-22T01:00:49.556Z,0
2017-03-22T01:01:30.033Z,0
2017-03-22T01:02:10.530Z,0
2017-03-22T01:02:51.017Z,0
2017-03-22T01:03:31.500Z,0
2017-03-22T01:04:11.981Z,0
2017-03-22T01:04:52.446Z,0
2017-03-22T01:05:32.930Z,0
2017-03-22T01:06:13.404Z,0
2017-03-22T01:06:53.868Z,0
2017-03-22T01:07:34.295Z,0
2017-03-22T01:08:14.777Z,0
2017-03-22T01:08:55.256Z,0
2017-03-22T01:09:35.739Z,0
2017-03-22T01:10:16.223Z,0
2017-03-22T01:10:56.719Z,0
2017-03-22T01:11:37.201Z,0
2017-03-22T01:12:17.665Z,0
2017-03-22T01:12:58.164Z,0
2017-03-22T01:13:38.656Z,0
2017-03-22T01:14:20.076Z,0
2017-03-22T01:15:00.570Z,0
2017-03-22T01:15:41.040Z,0
2017-03-22T01:16:21.464Z,0
2017-03-22T01:17:01.906Z,0
2017-03-22T01:17:42.331Z,0
2017-03-22T01:18:22.788Z,0
2017-03-22T01:19:03.250Z,0
2017-03-22T01:21:36.226Z,0
2017-03-22T01:22:16.724Z,0
2017-03-22T01:22:57.213Z,0
2017-03-22T01:23:37.685Z,0
2017-03-22T01:24:18.172Z,0
2017-03-22T01:24:58.657Z,0
2017-03-22T01:25:39.135Z,0
2017-03-22T01:26:19.604Z,0
2017-03-22T01:27:00.078Z,0
2017-03-22T01:27:40.559Z,0
2017-03-22T01:28:21.051Z,0
2017-03-22T01:29:01.535Z,0
2017-03-22T01:29:42.011Z,0
2017-03-22T01:30:22.452Z,0
2017-03-22T01:31:02.897Z,0
2017-03-22T01:31:43.376Z,0
2017-03-22T01:32:23.838Z,0
2017-03-22T01:34:41.612Z,0
2017-03-22T01:35:22.091Z,0
2017-03-22T01:36:02.590Z,0
2017-03-22T01:36:43.061Z,0
2017-03-22T01:37:23.539Z,0
2017-03-22T01:38:04.024Z,0
2017-03-22T01:38:44.457Z,0
2017-03-22T01:39:24.929Z,0
2017-03-22T01:40:05.409Z,0
2017-03-22T01:40:45.882Z,0
2017-03-22T01:41:26.357Z,0
2017-03-22T01:42:06.808Z,0
2017-03-22T01:42:47.269Z,0
2017-03-22T01:43:27.757Z,0
2017-03-22T01:44:08.230Z,0
2017-03-22T01:44:48.722Z,0
2017-03-22T01:45:29.204Z,0
2017-03-22T01:46:09.677Z,0
2017-03-22T01:46:50.158Z,0
2017-03-22T01:47:30.642Z,0
2017-03-22T01:48:11.146Z,0
2017-03-22T01:48:51.627Z,0
2017-03-22T01:49:32.101Z,0
2017-03-22T01:50:12.557Z,0
2017-03-22T01:50:53.006Z,0
2017-03-22T01:51:33.460Z,0
2017-03-22T01:52:13.925Z,0
2017-03-22T01:52:54.392Z,0
2017-03-22T01:53:34.838Z,0
2017-03-22T01:54:15.300Z,0
2017-03-22T01:54:55.768Z,0
2017-03-22T01:55:36.208Z,0
2017-03-22T01:56:16.650Z,0
2017-03-22T01:56:57.098Z,0
2017-03-22T01:57:37.539Z,0
2017-03-22T01:58:18.025Z,0
2017-03-22T01:58:58.466Z,0
2017-03-22T01:59:38.917Z,0
2017-03-22T02:00:19.399Z,0
2017-03-22T02:00:59.888Z,0
2017-03-22T02:01:40.362Z,0
2017-03-22T02:02:21.313Z,0
2017-03-22T02:03:01.758Z,0
2017-03-22T02:04:59.401Z,0
2017-03-22T02:05:39.899Z,0
2017-03-22T02:06:20.357Z,0
2017-03-22T02:07:00.833Z,0
2017-03-22T02:07:41.326Z,0
2017-03-22T02:08:21.823Z,0
2017-03-22T02:09:02.298Z,0
2017-03-22T02:09:42.769Z,0
2017-03-22T02:10:23.261Z,0
2017-03-22T02:11:03.750Z,0
2017-03-22T02:11:44.271Z,0
2017-03-22T02:12:24.732Z,0
2017-03-22T02:13:05.237Z,0
2017-03-22T02:13:45.705Z,0
2017-03-22T02:14:26.181Z,0
2017-03-22T02:15:06.688Z,0
2017-03-22T02:15:47.163Z,0
2017-03-22T02:16:27.641Z,0
2017-03-22T02:17:08.123Z,0
2017-03-22T02:17:48.614Z,0
2017-03-22T02:18:29.096Z,0
2017-03-22T02:19:09.560Z,0
2017-03-22T02:19:50.015Z,0
2017-03-22T02:20:30.473Z,0
2017-03-22T02:21:10.940Z,0
2017-03-22T02:21:51.397Z,0
2017-03-22T02:22:31.867Z,0
2017-03-22T02:23:12.313Z,0
2017-03-22T02:23:52.760Z,0
2017-03-22T02:24:33.225Z,0
2017-03-22T02:25:13.693Z,0
2017-03-22T02:25:54.171Z,0
2017-03-22T02:28:27.170Z,0
2017-03-22T02:29:07.654Z,0
2017-03-22T02:29:48.118Z,0
2017-03-22T02:30:28.618Z,0
2017-03-22T02:31:09.110Z,0
2017-03-22T02:31:49.571Z,0
2017-03-22T02:32:30.047Z,0
2017-03-22T02:33:10.555Z,0
2017-03-22T02:33:51.024Z,0
2017-03-22T02:34:31.488Z,0
2017-03-22T02:35:11.978Z,0
2017-03-22T02:35:52.439Z,0
2017-03-22T02:36:32.888Z,0
2017-03-22T02:37:13.325Z,0
2017-03-22T02:39:10.937Z,0
2017-03-22T02:39:51.402Z,0
2017-03-22T02:40:31.883Z,0
2017-03-22T02:41:12.376Z,0
2017-03-22T02:41:52.885Z,0
2017-03-22T02:42:33.354Z,0
2017-03-22T02:43:13.856Z,0
2017-03-22T02:43:54.325Z,0
2017-03-22T02:44:34.803Z,0
2017-03-22T02:45:15.279Z,0
2017-03-22T02:47:48.304Z,0
2017-03-22T02:48:28.789Z,0
2017-03-22T02:49:09.276Z,0
2017-03-22T02:49:49.745Z,0
2017-03-22T02:50:30.220Z,0
2017-03-22T02:51:10.696Z,0
2017-03-22T02:51:51.186Z,0
2017-03-22T02:52:31.669Z,0
2017-03-22T02:53:12.153Z,0
2017-03-22T02:53:52.611Z,0
2017-03-22T02:54:33.055Z,0
2017-03-22T02:55:14.510Z,0
2017-03-22T02:55:54.983Z,0
2017-03-22T02:56:35.431Z,0
2017-03-22T02:57:15.866Z,0
2017-03-22T02:57:56.352Z,0
2017-03-22T02:58:36.960Z,0
2017-03-22T02:59:17.457Z,0
2017-03-22T02:59:57.943Z,0
2017-03-22T03:00:38.429Z,0
2017-03-22T03:01:18.926Z,0
2017-03-22T03:01:59.412Z,0
2017-03-22T03:02:39.891Z,0
2017-03-22T03:03:20.376Z,0
2017-03-22T03:04:00.869Z,0
2017-03-22T03:04:41.362Z,0
2017-03-22T03:05:21.837Z,0
2017-03-22T03:06:02.310Z,0
2017-03-22T03:06:42.808Z,0
2017-03-22T03:07:23.295Z,0
2017-03-22T03:08:03.787Z,0
2017-03-22T03:08:44.281Z,0
2017-03-22T03:09:24.760Z,0
2017-03-22T03:10:05.250Z,0
2017-03-22T03:10:45.724Z,0
2017-03-22T03:11:26.221Z,0
2017-03-22T03:12:06.654Z,0
2017-03-22T03:12:47.100Z,0
2017-03-22T03:13:27.571Z,0
2017-03-22T03:14:08.021Z,0
2017-03-22T03:14:48.517Z,0
2017-03-22T03:15:28.976Z,0
2017-03-22T03:16:09.439Z,0
2017-03-22T03:16:49.937Z,0
2017-03-22T03:17:30.398Z,0
2017-03-22T03:18:10.829Z,0
2017-03-22T03:18:51.273Z,0
2017-03-22T03:19:31.751Z,0
2017-03-22T03:20:12.212Z,0
2017-03-22T03:20:52.663Z,0
2017-03-22T03:21:33.118Z,0
2017-03-22T03:22:13.558Z,0
2017-03-22T03:22:53.999Z,0
2017-03-22T03:23:34.490Z,0
2017-03-22T03:24:14.918Z,0
2017-03-22T03:24:55.412Z,0
2017-03-22T03:25:35.862Z,0
2017-03-22T03:26:16.326Z,0
2017-03-22T03:26:56.804Z,0
2017-03-22T03:27:37.281Z,0
2017-03-22T03:28:17.771Z,0
2017-03-22T03:28:58.261Z,0
2017-03-22T03:29:38.738Z,0
2017-03-22T03:30:19.214Z,0
2017-03-22T03:30:59.709Z,0
2017-03-22T03:31:40.193Z,0
2017-03-22T03:32:20.667Z,0
2017-03-22T03:33:01.151Z,0
2017-03-22T03:33:41.632Z,0
2017-03-22T03:34:22.128Z,0
2017-03-22T03:35:02.611Z,0
2017-03-22T03:35:43.086Z,0
2017-03-22T03:36:23.560Z,0
2017-03-22T03:37:04.050Z,0
2017-03-22T03:37:44.526Z,0
2017-03-22T03:38:24.977Z,0
2017-03-22T03:39:05.444Z,0
2017-03-22T03:39:46.001Z,0
2017-03-22T03:40:26.486Z,0
2017-03-22T03:41:06.970Z,0
2017-03-22T03:41:47.450Z,0
2017-03-22T03:42:27.939Z,0
2017-03-22T03:43:09.014Z,0
2017-03-22T03:43:49.494Z,0
2017-03-22T03:44:29.977Z,0
2017-03-22T03:45:10.455Z,0
2017-03-22T03:45:50.935Z,0
2017-03-22T03:46:31.393Z,0
2017-03-22T03:49:04.383Z,0
2017-03-22T03:49:44.878Z,0
2017-03-22T03:50:25.356Z,0
2017-03-22T03:51:05.834Z,0
2017-03-22T03:51:46.338Z,0
2017-03-22T03:52:26.845Z,0
2017-03-22T03:53:07.282Z,0
2017-03-22T03:53:47.765Z,0
2017-03-22T03:54:28.262Z,0
2017-03-22T03:55:08.736Z,0
2017-03-22T03:55:50.045Z,0
2017-03-22T03:57:47.686Z,0
2017-03-22T03:58:28.213Z,0
2017-03-22T03:59:08.696Z,0
2017-03-22T03:59:49.188Z,0
2017-03-22T04:00:29.697Z,0
2017-03-22T04:01:10.191Z,0
2017-03-22T04:01:50.679Z,0
2017-03-22T04:02:31.151Z,0
2017-03-22T04:03:11.634Z,0
2017-03-22T04:03:52.115Z,0
2017-03-22T04:04:32.525Z,0
2017-03-22T04:05:12.965Z,0
2017-03-22T04:05:53.415Z,0
2017-03-22T04:06:33.891Z,0
2017-03-22T04:07:14.309Z,0
2017-03-22T04:07:54.729Z,0
2017-03-22T04:08:35.186Z,0
2017-03-22T04:09:15.650Z,0
2017-03-22T04:09:56.105Z,0
2017-03-22T04:12:24.030Z,0
2017-03-22T04:13:04.494Z,0
2017-03-22T04:13:44.974Z,0
2017-03-22T04:14:25.448Z,0
2017-03-22T04:15:05.933Z,0
2017-03-22T04:15:46.425Z,0
2017-03-22T04:16:26.906Z,0
2017-03-22T04:17:07.389Z,0
2017-03-22T04:17:47.876Z,0
2017-03-22T04:18:28.362Z,0
2017-03-22T04:19:08.854Z,0
2017-03-22T04:19:49.341Z,0
2017-03-22T04:20:29.836Z,0
2017-03-22T04:21:10.319Z,0
2017-03-22T04:21:50.787Z,0
2017-03-22T04:22:31.250Z,0
2017-03-22T04:23:11.705Z,0
2017-03-22T04:23:52.136Z,0
2017-03-22T04:24:32.551Z,0
2017-03-22T04:25:12.992Z,0
2017-03-22T04:25:53.439Z,0
2017-03-22T04:26:33.864Z,0
2017-03-22T04:27:14.317Z,0
2017-03-22T04:27:54.810Z,0
2017-03-22T04:28:35.297Z,0
2017-03-22T04:29:15.773Z,0
2017-03-22T04:29:56.252Z,0
2017-03-22T04:30:36.743Z,0
2017-03-22T04:31:17.229Z,0
2017-03-22T04:31:57.729Z,0
2017-03-22T04:32:38.221Z,0
2017-03-22T04:33:18.703Z,0
2017-03-22T04:33:59.200Z,0
2017-03-22T04:34:39.679Z,0
2017-03-22T04:35:20.168Z,0
2017-03-22T04:36:00.655Z,0
2017-03-22T04:36:41.126Z,0
2017-03-22T04:37:21.585Z,0
2017-03-22T04:39:54.628Z,0
2017-03-22T04:40:35.100Z,0
2017-03-22T04:41:15.557Z,0
2017-03-22T04:41:56.057Z,0
2017-03-22T04:42:36.551Z,0
2017-03-22T04:43:17.042Z,0
2017-03-22T04:43:57.533Z,0
2017-03-22T04:44:38.020Z,0
2017-03-22T04:45:18.506Z,0
2017-03-22T04:45:59.970Z,0
2017-03-22T04:46:40.430Z,0
2017-03-22T04:47:20.922Z,0
2017-03-22T04:48:01.401Z,0
2017-03-22T04:48:41.939Z,0
2017-03-22T04:49:22.384Z,0
2017-03-22T04:50:02.857Z,0
2017-03-22T04:50:43.336Z,0
2017-03-22T04:51:23.831Z,0
2017-03-22T04:52:04.291Z,0
2017-03-22T04:52:44.736Z,0
2017-03-22T04:53:25.194Z,0
2017-03-22T04:54:05.664Z,0
2017-03-22T04:54:46.130Z,0
2017-03-22T04:55:26.617Z,0
2017-03-22T04:56:07.107Z,0
2017-03-22T04:56:47.600Z,0
2017-03-22T04:57:28.080Z,0
2017-03-22T04:59:45.905Z,0
2017-03-22T05:00:26.381Z,0
2017-03-22T05:01:06.868Z,0
2017-03-22T05:01:47.370Z,0
2017-03-22T05:02:27.927Z,4
2017-03-22T05:03:08.396Z,4
2017-03-22T05:03:48.878Z,4
2017-03-22T05:04:29.365Z,4
2017-03-22T05:05:09.857Z,4
2017-03-22T05:05:50.337Z,4
2017-03-22T05:06:30.790Z,4
2017-03-22T05:08:28.412Z,8
2017-03-22T05:09:08.842Z,8
2017-03-22T05:11:06.466Z,12
2017-03-22T05:11:46.911Z,12
2017-03-22T05:12:27.380Z,16
2017-03-22T05:13:07.873Z,16
2017-03-22T05:13:48.347Z,16
2017-03-22T05:14:28.811Z,20
2017-03-22T05:15:09.287Z,20
2017-03-22T05:15:49.769Z,24
2017-03-22T05:16:30.258Z,24
2017-03-22T05:17:10.761Z,28
2017-03-22T05:17:51.199Z,32
2017-03-22T05:18:31.672Z,36
2017-03-22T05:19:12.165Z,40
2017-03-22T05:19:52.664Z,44
2017-03-22T05:20:33.118Z,52
2017-03-22T05:21:13.585Z,56
2017-03-22T05:23:46.608Z,76
2017-03-22T05:24:27.100Z,84
2017-03-22T05:25:07.580Z,92
2017-03-22T05:25:48.050Z,100
2017-03-22T05:26:28.523Z,104
2017-03-22T05:27:08.956Z,112
2017-03-22T05:27:49.425Z,120
2017-03-22T05:28:29.908Z,124
2017-03-22T05:29:10.401Z,136
2017-03-22T05:29:50.884Z,144
2017-03-22T05:30:31.420Z,152
2017-03-22T05:31:11.879Z,164
2017-03-22T05:31:52.329Z,168
2017-03-22T05:32:32.761Z,176
2017-03-22T05:33:13.259Z,184
2017-03-22T05:33:53.751Z,188
2017-03-22T05:34:34.237Z,196
2017-03-22T05:35:14.732Z,204
2017-03-22T05:35:55.212Z,212
2017-03-22T05:36:35.678Z,220
2017-03-22T05:37:16.107Z,232
2017-03-22T05:37:56.574Z,240
2017-03-22T05:38:37.062Z,248
2017-03-22T05:39:17.561Z,256
2017-03-22T05:39:58.039Z,268
2017-03-22T05:40:38.522Z,280
2017-03-22T05:41:19.026Z,292
2017-03-22T05:41:59.504Z,304
2017-03-22T05:42:39.973Z,316
2017-03-22T05:43:20.445Z,332
2017-03-22T05:44:00.942Z,352
2017-03-22T05:44:41.422Z,368
2017-03-22T05:45:21.908Z,388
2017-03-22T05:46:02.386Z,412
2017-03-22T05:46:42.845Z,440
2017-03-22T05:47:23.314Z,472
2017-03-22T05:48:03.770Z,504
2017-03-22T05:50:21.615Z,588
2017-03-22T05:51:02.067Z,608
2017-03-22T05:51:42.537Z,604
2017-03-22T05:52:23.012Z,604
2017-03-22T05:53:03.473Z,612
2017-03-22T05:53:43.976Z,632
2017-03-22T05:54:24.464Z,656
2017-03-22T05:55:04.936Z,692
2017-03-22T05:55:45.438Z,732
2017-03-22T05:56:25.907Z,760
2017-03-22T05:57:06.392Z,792
2017-03-22T05:57:46.865Z,824
2017-03-22T05:58:27.354Z,852
2017-03-22T05:59:07.836Z,880
2017-03-22T06:01:40.816Z,880
2017-03-22T06:02:21.313Z,856
2017-03-22T06:03:01.796Z,844
2017-03-22T06:03:42.267Z,828
2017-03-22T06:04:22.745Z,820
2017-03-22T06:05:03.248Z,828
2017-03-22T06:05:43.733Z,844
2017-03-22T06:08:01.581Z,916
2017-03-22T06:08:42.060Z,940
2017-03-22T06:09:22.549Z,956
2017-03-22T06:10:03.016Z,980
2017-03-22T06:10:43.475Z,1004
2017-03-22T06:11:23.974Z,1040
2017-03-22T06:12:04.492Z,1072
2017-03-22T06:12:44.914Z,1116
2017-03-22T06:13:25.382Z,1176
2017-03-22T06:14:05.863Z,1236
2017-03-22T06:14:46.332Z,1296
2017-03-22T06:15:26.774Z,1356
2017-03-22T06:16:07.236Z,1432
2017-03-22T06:16:47.683Z,1524
2017-03-22T06:17:28.111Z,1616
2017-03-22T06:18:08.582Z,1720
2017-03-22T06:18:49.032Z,1844
2017-03-22T06:19:29.492Z,1968
2017-03-22T06:20:09.959Z,2104
2017-03-22T06:20:50.428Z,2276
2017-03-22T06:22:48.070Z,2956
2017-03-22T06:23:28.569Z,3204
2017-03-22T06:24:09.026Z,3472
2017-03-22T06:24:49.502Z,3720
2017-03-22T06:25:29.986Z,3888
2017-03-22T06:26:10.486Z,4044
2017-03-22T06:26:50.957Z,4160
2017-03-22T06:27:31.422Z,4200
2017-03-22T06:28:11.895Z,4164
2017-03-22T06:28:52.380Z,4152
2017-03-22T06:29:32.882Z,4116
2017-03-22T06:30:13.358Z,3940
2017-03-22T06:30:53.844Z,3632
2017-03-22T06:31:34.355Z,3344
2017-03-22T06:32:14.829Z,3208
2017-03-22T06:32:55.266Z,3224
2017-03-22T06:35:08.005Z,3460
2017-03-22T06:35:48.485Z,3528
2017-03-22T06:36:28.965Z,3564
2017-03-22T06:37:09.450Z,3524
2017-03-22T06:37:49.947Z,3448
2017-03-22T06:38:30.442Z,3364
2017-03-22T06:39:10.932Z,3296
2017-03-22T06:39:51.427Z,3220
2017-03-22T06:40:31.917Z,3168
2017-03-22T06:41:12.399Z,3000
2017-03-22T06:41:52.889Z,2792
2017-03-22T06:42:33.352Z,2696
2017-03-22T06:43:13.821Z,2668
2017-03-22T06:43:54.309Z,2632
2017-03-22T06:46:27.314Z,2620
2017-03-22T06:47:07.824Z,2748
2017-03-22T06:47:48.248Z,2720
2017-03-22T06:48:28.688Z,2604
2017-03-22T06:49:09.146Z,2524
2017-03-22T06:49:49.612Z,2656
2017-03-22T06:50:30.084Z,2864
2017-03-22T06:51:10.573Z,2868
2017-03-22T06:51:51.068Z,2788
2017-03-22T06:52:31.566Z,2792
2017-03-22T06:53:12.048Z,2904
2017-03-22T06:53:52.539Z,2964
2017-03-22T06:54:33.018Z,2968
2017-03-22T06:55:13.497Z,2956
2017-03-22T06:55:53.995Z,2960
2017-03-22T06:56:34.476Z,3000
2017-03-22T06:57:14.958Z,3032
2017-03-22T06:57:55.460Z,3016
2017-03-22T06:58:35.946Z,3028
2017-03-22T06:59:16.439Z,3020
2017-03-22T06:59:56.914Z,2992
2017-03-22T07:00:37.409Z,2948
2017-03-22T07:01:17.895Z,2912
2017-03-22T07:01:58.386Z,2964
2017-03-22T07:02:38.864Z,3000
2017-03-22T07:03:19.365Z,2988
2017-03-22T07:03:59.828Z,3016
2017-03-22T07:04:40.322Z,3068
2017-03-22T07:05:20.814Z,3140
2017-03-22T07:06:01.306Z,3208
2017-03-22T07:06:41.784Z,3304
2017-03-22T07:07:22.261Z,3432
2017-03-22T07:08:02.710Z,3532
2017-03-22T07:08:43.178Z,3640
2017-03-22T07:09:23.667Z,3736
2017-03-22T07:10:04.114Z,3852
2017-03-22T07:10:45.316Z,3928
2017-03-22T07:11:25.770Z,4000
2017-03-22T07:12:06.211Z,4056
2017-03-22T07:12:46.636Z,4128
2017-03-22T07:13:27.820Z,4168
2017-03-22T07:14:08.277Z,4184
2017-03-22T07:14:48.733Z,4240
2017-03-22T07:15:29.169Z,4308
2017-03-22T07:16:09.619Z,4456
2017-03-22T07:16:50.064Z,4632
2017-03-22T07:17:30.517Z,4836
2017-03-22T07:18:10.969Z,5076
2017-03-22T07:18:52.083Z,5312
2017-03-22T07:19:32.507Z,5456
2017-03-22T07:20:12.971Z,5492
2017-03-22T07:20:53.507Z,5452
2017-03-22T07:21:34.040Z,5436
2017-03-22T07:22:14.477Z,5408
2017-03-22T07:22:54.914Z,5376
2017-03-22T07:23:35.381Z,5308
2017-03-22T07:24:15.820Z,5380
2017-03-22T07:26:28.552Z,5528
2017-03-22T07:27:09.033Z,5516
2017-03-22T07:27:49.504Z,5548
2017-03-22T07:28:30.012Z,5636
2017-03-22T07:31:03.014Z,5860
2017-03-22T07:31:43.499Z,5908
2017-03-22T07:32:23.944Z,5988
2017-03-22T07:33:04.381Z,5976
2017-03-22T07:33:44.840Z,6012
2017-03-22T07:34:25.299Z,6104
2017-03-22T07:35:05.755Z,6172
2017-03-22T07:35:46.214Z,6204
2017-03-22T07:38:04.015Z,6504
2017-03-22T07:38:44.493Z,6700
2017-03-22T07:39:25.026Z,6844
2017-03-22T07:40:05.516Z,7168
2017-03-22T07:40:45.990Z,7328
2017-03-22T07:41:26.477Z,7300
2017-03-22T07:42:06.975Z,7200
2017-03-22T07:42:48.208Z,7056
2017-03-22T07:43:28.715Z,6904
2017-03-22T07:44:09.188Z,6684
2017-03-22T07:44:49.666Z,6560
2017-03-22T07:45:30.147Z,6532
2017-03-22T07:46:10.645Z,6500
2017-03-22T07:46:51.126Z,6512
2017-03-22T07:47:31.611Z,6504
2017-03-22T07:49:44.327Z,6144
2017-03-22T07:50:24.817Z,6364
2017-03-22T07:51:05.303Z,6660
2017-03-22T07:51:45.777Z,6996
2017-03-22T07:52:26.263Z,7284
2017-03-22T07:53:06.745Z,7524
2017-03-22T07:53:47.282Z,7668
2017-03-22T07:54:27.776Z,7784
2017-03-22T07:55:08.281Z,7856
2017-03-22T07:55:48.756Z,7824
2017-03-22T07:56:29.234Z,7772
2017-03-22T07:57:09.713Z,7624
2017-03-22T07:57:50.187Z,7444
2017-03-22T07:58:30.621Z,7284
2017-03-22T07:59:11.100Z,7084
2017-03-22T08:01:44.100Z,6356
2017-03-22T08:02:24.617Z,6304
2017-03-22T08:03:05.102Z,6308
2017-03-22T08:03:45.589Z,6380
2017-03-22T08:04:26.111Z,6396
2017-03-22T08:05:06.598Z,6452
2017-03-22T08:05:47.070Z,6624
2017-03-22T08:06:27.567Z,6820
2017-03-22T08:07:08.049Z,6972
2017-03-22T08:07:49.325Z,7076
2017-03-22T08:08:29.802Z,7036
2017-03-22T08:09:10.279Z,6940
2017-03-22T08:09:50.788Z,6808
2017-03-22T08:10:31.257Z,6736
2017-03-22T08:11:11.731Z,6720
2017-03-22T08:11:52.176Z,6788
2017-03-22T08:12:32.685Z,6876
2017-03-22T08:13:13.194Z,6900
2017-03-22T08:13:53.693Z,6952
2017-03-22T08:14:34.181Z,6916
2017-03-22T08:15:14.672Z,6892
2017-03-22T08:15:55.126Z,6916
2017-03-22T08:16:35.590Z,6944
2017-03-22T08:17:16.071Z,7040
2017-03-22T08:17:57.178Z,7220
2017-03-22T08:18:37.683Z,7436
2017-03-22T08:19:18.133Z,7656
2017-03-22T08:19:58.596Z,7884
2017-03-22T08:20:39.049Z,8180
2017-03-22T08:21:19.512Z,8352
2017-03-22T08:22:00.009Z,8528
2017-03-22T08:22:40.494Z,8664
2017-03-22T08:23:20.986Z,8768
2017-03-22T08:24:01.481Z,8812
2017-03-22T08:24:41.985Z,8816
2017-03-22T08:25:22.461Z,8788
2017-03-22T08:26:02.974Z,8656
2017-03-22T08:26:43.454Z,8588
2017-03-22T08:27:23.938Z,8632
2017-03-22T08:28:04.400Z,8652
2017-03-22T08:28:44.956Z,8600
2017-03-22T08:29:25.420Z,8620
2017-03-22T08:30:05.884Z,8584
2017-03-22T08:30:46.407Z,8596
2017-03-22T08:31:26.858Z,8708
2017-03-22T08:32:07.298Z,8812
2017-03-22T08:32:47.736Z,8976
2017-03-22T08:33:29.094Z,9084
2017-03-22T08:35:26.717Z,9432
2017-03-22T08:36:07.193Z,9492
2017-03-22T08:36:47.678Z,9752
2017-03-22T08:37:28.162Z,10064
2017-03-22T08:38:08.596Z,10492
2017-03-22T08:38:49.056Z,10936
2017-03-22T08:39:29.525Z,11332
2017-03-22T08:40:09.990Z,11664
2017-03-22T08:42:37.890Z,12936
2017-03-22T08:43:18.389Z,13348
2017-03-22T08:43:58.889Z,13548
2017-03-22T08:44:39.392Z,13680
2017-03-22T08:45:19.912Z,13636
2017-03-22T08:46:00.383Z,14268
2017-03-22T08:46:40.895Z,15104
2017-03-22T08:47:21.379Z,15004
2017-03-22T08:48:01.861Z,14100
2017-03-22T08:48:42.331Z,14040
2017-03-22T08:49:22.789Z,13680
2017-03-22T08:50:03.278Z,13712
2017-03-22T08:50:43.769Z,13776
2017-03-22T08:51:24.300Z,14004
2017-03-22T08:52:04.811Z,14192
2017-03-22T08:52:45.334Z,14584
2017-03-22T08:53:25.826Z,14776
2017-03-22T08:54:06.329Z,14968
2017-03-22T08:54:46.818Z,15216
2017-03-22T08:55:27.307Z,16476
2017-03-22T08:56:07.791Z,17288
2017-03-22T08:56:48.243Z,15080
2017-03-22T08:57:28.733Z,14228
2017-03-22T08:58:09.190Z,13236
2017-03-22T09:00:06.846Z,11456
2017-03-22T09:00:47.339Z,11412
2017-03-22T09:01:27.822Z,10668
2017-03-22T09:02:08.301Z,10404
2017-03-22T09:02:48.742Z,10396
2017-03-22T09:03:29.204Z,10580
2017-03-22T09:04:09.637Z,11176
2017-03-22T09:04:50.077Z,12336
2017-03-22T09:07:08.058Z,12500
2017-03-22T09:07:48.537Z,12160
2017-03-22T09:08:29.023Z,13108
2017-03-22T09:09:09.524Z,16984
2017-03-22T09:09:50.049Z,19232
2017-03-22T09:10:30.502Z,17824
2017-03-22T09:11:11.625Z,18752
2017-03-22T09:13:09.297Z,12620
2017-03-22T09:13:49.809Z,13016
2017-03-22T09:14:30.336Z,15060
2017-03-22T09:15:10.744Z,17792
2017-03-22T09:15:51.240Z,19712
2017-03-22T09:17:48.867Z,19264
2017-03-22T09:18:29.360Z,19840
2017-03-22T09:20:27.132Z,20800
2017-03-22T09:21:07.627Z,19968
2017-03-22T09:21:48.142Z,20864
2017-03-22T09:22:28.598Z,24256
2017-03-22T09:23:09.075Z,24192
2017-03-22T09:23:49.569Z,24864
2017-03-22T09:24:30.073Z,23552
2017-03-22T09:25:10.579Z,22336
2017-03-22T09:25:51.268Z,22688
2017-03-22T09:26:31.607Z,23776
2017-03-22T09:27:12.123Z,25472
2017-03-22T09:29:29.897Z,24608
2017-03-22T09:30:10.381Z,22784
2017-03-22T09:30:50.827Z,19872
2017-03-22T09:31:31.298Z,16420
2017-03-22T09:33:28.955Z,12752
2017-03-22T09:34:09.456Z,12384
2017-03-22T09:34:50.039Z,12224
2017-03-22T09:35:30.589Z,13112
2017-03-22T09:36:11.126Z,13924
2017-03-22T09:36:51.610Z,13560
2017-03-22T09:37:32.109Z,12308
2017-03-22T09:38:12.565Z,11236
2017-03-22T09:38:53.081Z,10788
2017-03-22T09:39:33.656Z,11068
2017-03-22T09:40:14.148Z,11528
2017-03-22T09:40:54.649Z,11380
2017-03-22T09:43:12.493Z,7236
2017-03-22T09:43:52.963Z,6664
2017-03-22T09:44:33.501Z,6268
2017-03-22T09:45:13.985Z,6256
2017-03-22T09:45:54.532Z,6424
2017-03-22T09:46:35.020Z,6836
2017-03-22T09:47:15.535Z,7188
2017-03-22T09:47:56.089Z,7080
2017-03-22T09:48:36.593Z,7700
2017-03-22T09:49:17.074Z,8860
2017-03-22T09:49:57.638Z,10532
2017-03-22T09:50:38.156Z,10968
2017-03-22T09:51:18.660Z,11700
2017-03-22T09:53:46.592Z,12836
2017-03-22T09:54:27.070Z,14152
2017-03-22T09:55:07.550Z,15048
2017-03-22T09:55:48.012Z,15580
2017-03-22T09:56:28.466Z,14708
2017-03-22T09:57:08.946Z,12344
2017-03-22T09:59:42.082Z,11244
2017-03-22T10:00:22.529Z,11648
2017-03-22T10:01:03.016Z,11924
2017-03-22T10:01:43.607Z,12204
2017-03-22T10:02:24.191Z,12376
2017-03-22T10:03:04.657Z,12584
2017-03-22T10:03:45.180Z,12800
2017-03-22T10:04:26.409Z,12184
2017-03-22T10:05:06.163Z,11816
2017-03-22T10:05:46.652Z,11204
2017-03-22T10:06:27.138Z,10056
2017-03-22T10:07:07.652Z,8884
2017-03-22T10:07:48.144Z,7984
2017-03-22T10:08:28.635Z,7580
2017-03-22T10:09:09.152Z,7332
2017-03-22T10:09:49.637Z,7208
2017-03-22T10:10:30.106Z,7284
2017-03-22T10:11:10.559Z,7480
2017-03-22T10:11:51.057Z,7568
2017-03-22T10:12:31.558Z,7684
2017-03-22T10:13:12.044Z,8100
2017-03-22T10:13:52.552Z,8684
2017-03-22T10:14:33.050Z,9092
2017-03-22T10:15:13.547Z,9664
2017-03-22T10:15:54.039Z,9732
2017-03-22T10:16:34.530Z,9536
2017-03-22T10:17:14.988Z,9176
2017-03-22T10:17:55.499Z,8788
2017-03-22T10:18:35.996Z,8396
2017-03-22T10:19:16.489Z,8048
2017-03-22T10:19:56.986Z,8120
2017-03-22T10:20:37.493Z,8844
2017-03-22T10:21:17.951Z,9556
2017-03-22T10:23:35.747Z,11320
2017-03-22T10:24:16.255Z,11428
2017-03-22T10:24:56.795Z,11680
2017-03-22T10:25:37.267Z,12200
2017-03-22T10:26:17.762Z,12888
2017-03-22T10:26:58.273Z,13660
2017-03-22T10:27:38.777Z,14468
2017-03-22T10:28:19.282Z,14656
2017-03-22T10:28:59.752Z,13904
2017-03-22T10:29:40.219Z,13552
2017-03-22T10:30:20.712Z,13652
2017-03-22T10:31:01.154Z,13776
2017-03-22T10:31:41.633Z,13324
2017-03-22T10:32:22.115Z,12684